sensor_id;sensor_type;location;lat;lon;timestamp;pressure;altitude;pressure_sealevel;temperature;humidity
53546;BME280;39432;51.902;10.844;2023-09-18T00:00:13;99070.72;;;20.56;100.00
53546;BME280;39432;51.902;10.844;2023-09-18T00:03:06;99069.97;;;20.09;100.00
53546;BME280;39432;51.902;10.844;2023-09-18T00:05:56;99070.03;;;20.00;100.00
53546;BME280;39432;51.902;10.844;2023-09-18T00:08:47;99067.78;;;20.52;100.00
53546;BME280;39432;51.902;10.844;2023-09-18T00:11:39;99072.28;;;21.08;100.00
53546;BME280;39432;51.902;10.844;2023-09-18T00:14:29;99077.28;;;21.35;100.00
53546;BME280;39432;51.902;10.844;2023-09-18T00:17:19;99071.06;;;21.38;100.00
53546;BME280;39432;51.902;10.844;2023-09-18T00:20:14;99062.25;;;21.15;100.00
53546;BME280;39432;51.902;10.844;2023-09-18T00:23:04;99064.28;;;20.64;100.00
53546;BME280;39432;51.902;10.844;2023-09-18T00:25:55;99060.19;;;19.47;100.00
53546;BME280;39432;51.902;10.844;2023-09-18T00:28:45;99060.44;;;19.07;100.00
53546;BME280;39432;51.902;10.844;2023-09-18T00:31:36;99066.97;;;18.85;100.00
53546;BME280;39432;51.902;10.844;2023-09-18T00:34:26;99061.41;;;18.85;100.00
53546;BME280;39432;51.902;10.844;2023-09-18T00:37:19;99070.38;;;18.91;100.00
53546;BME280;39432;51.902;10.844;2023-09-18T00:40:10;99069.06;;;18.80;100.00
53546;BME280;39432;51.902;10.844;2023-09-18T00:43:01;99066.31;;;18.80;100.00
53546;BME280;39432;51.902;10.844;2023-09-18T00:45:51;99057.31;;;19.00;100.00
53546;BME280;39432;51.902;10.844;2023-09-18T00:48:42;99050.47;;;18.72;100.00
53546;BME280;39432;51.902;10.844;2023-09-18T00:51:32;99043.00;;;18.81;100.00
53546;BME280;39432;51.902;10.844;2023-09-18T00:54:25;99037.19;;;18.25;100.00
53546;BME280;39432;51.902;10.844;2023-09-18T00:57:16;99034.41;;;18.34;100.00
53546;BME280;39432;51.902;10.844;2023-09-18T01:00:07;99027.59;;;18.31;100.00
53546;BME280;39432;51.902;10.844;2023-09-18T01:02:58;99025.97;;;18.56;100.00
53546;BME280;39432;51.902;10.844;2023-09-18T01:05:49;99015.69;;;18.39;100.00
53546;BME280;39432;51.902;10.844;2023-09-18T01:08:40;99005.16;;;18.67;100.00
53546;BME280;39432;51.902;10.844;2023-09-18T01:11:36;99001.56;;;18.93;100.00
53546;BME280;39432;51.902;10.844;2023-09-18T01:14:34;98994.56;;;18.95;100.00
53546;BME280;39432;51.902;10.844;2023-09-18T01:17:26;98989.16;;;18.82;100.00
53546;BME280;39432;51.902;10.844;2023-09-18T01:20:17;98993.31;;;18.01;100.00
53546;BME280;39432;51.902;10.844;2023-09-18T01:23:10;98999.53;;;18.15;100.00
53546;BME280;39432;51.902;10.844;2023-09-18T01:26:01;98992.91;;;18.42;100.00
53546;BME280;39432;51.902;10.844;2023-09-18T01:28:51;98992.56;;;18.61;100.00
53546;BME280;39432;51.902;10.844;2023-09-18T01:31:41;98995.31;;;18.27;100.00
53546;BME280;39432;51.902;10.844;2023-09-18T01:34:37;98995.94;;;17.67;100.00
53546;BME280;39432;51.902;10.844;2023-09-18T01:37:31;99005.16;;;17.53;100.00
53546;BME280;39432;51.902;10.844;2023-09-18T01:40:25;99004.31;;;17.84;100.00
53546;BME280;39432;51.902;10.844;2023-09-18T01:43:19;99002.06;;;17.86;100.00
53546;BME280;39432;51.902;10.844;2023-09-18T01:46:09;98999.94;;;17.52;100.00
53546;BME280;39432;51.902;10.844;2023-09-18T01:49:00;99002.69;;;17.83;100.00
53546;BME280;39432;51.902;10.844;2023-09-18T01:51:50;98992.91;;;17.77;100.00
53546;BME280;39432;51.902;10.844;2023-09-18T01:54:41;98997.97;;;17.75;100.00
53546;BME280;39432;51.902;10.844;2023-09-18T01:57:34;98984.66;;;17.94;100.00
53546;BME280;39432;51.902;10.844;2023-09-18T02:00:24;98994.06;;;17.76;100.00
53546;BME280;39432;51.902;10.844;2023-09-18T02:03:15;98979.94;;;17.86;100.00
53546;BME280;39432;51.902;10.844;2023-09-18T02:06:27;98983.38;;;17.60;100.00
53546;BME280;39432;51.902;10.844;2023-09-18T02:09:19;98979.34;;;17.67;100.00
53546;BME280;39432;51.902;10.844;2023-09-18T02:12:09;98960.56;;;17.95;100.00
53546;BME280;39432;51.902;10.844;2023-09-18T02:15:07;98956.72;;;17.64;100.00
53546;BME280;39432;51.902;10.844;2023-09-18T02:17:58;98955.16;;;17.81;100.00
53546;BME280;39432;51.902;10.844;2023-09-18T02:20:48;98947.91;;;18.20;100.00
53546;BME280;39432;51.902;10.844;2023-09-18T02:23:39;98951.63;;;18.24;100.00
53546;BME280;39432;51.902;10.844;2023-09-18T02:26:29;98949.00;;;17.93;100.00
53546;BME280;39432;51.902;10.844;2023-09-18T02:29:20;98949.28;;;17.74;100.00
53546;BME280;39432;51.902;10.844;2023-09-18T02:32:13;98958.78;;;17.50;100.00
53546;BME280;39432;51.902;10.844;2023-09-18T02:35:05;98968.41;;;17.61;100.00
53546;BME280;39432;51.902;10.844;2023-09-18T02:37:56;98948.56;;;18.08;100.00
53546;BME280;39432;51.902;10.844;2023-09-18T02:40:47;98942.94;;;17.73;100.00
53546;BME280;39432;51.902;10.844;2023-09-18T02:43:37;98934.34;;;17.92;100.00
53546;BME280;39432;51.902;10.844;2023-09-18T02:46:28;98929.47;;;18.06;100.00
53546;BME280;39432;51.902;10.844;2023-09-18T02:49:21;98919.22;;;18.85;100.00
53546;BME280;39432;51.902;10.844;2023-09-18T02:52:11;98923.31;;;18.44;100.00
53546;BME280;39432;51.902;10.844;2023-09-18T02:55:02;98909.88;;;18.98;100.00
53546;BME280;39432;51.902;10.844;2023-09-18T02:57:53;98906.59;;;19.13;100.00
53546;BME280;39432;51.902;10.844;2023-09-18T03:00:43;98906.66;;;18.01;100.00
53546;BME280;39432;51.902;10.844;2023-09-18T03:03:34;98918.53;;;17.75;100.00
53546;BME280;39432;51.902;10.844;2023-09-18T03:06:27;98929.69;;;17.61;100.00
53546;BME280;39432;51.902;10.844;2023-09-18T03:09:17;98938.03;;;17.70;100.00
53546;BME280;39432;51.902;10.844;2023-09-18T03:12:09;98945.50;;;17.30;100.00
53546;BME280;39432;51.902;10.844;2023-09-18T03:14:59;98940.66;;;17.35;100.00
53546;BME280;39432;51.902;10.844;2023-09-18T03:17:51;98940.34;;;17.85;100.00
53546;BME280;39432;51.902;10.844;2023-09-18T03:20:42;98933.78;;;17.64;100.00
53546;BME280;39432;51.902;10.844;2023-09-18T03:23:35;98930.56;;;17.31;100.00
53546;BME280;39432;51.902;10.844;2023-09-18T03:26:26;98935.03;;;17.58;100.00
53546;BME280;39432;51.902;10.844;2023-09-18T03:29:16;98931.72;;;17.38;100.00
53546;BME280;39432;51.902;10.844;2023-09-18T03:32:07;98928.91;;;17.30;100.00
53546;BME280;39432;51.902;10.844;2023-09-18T03:35:00;98933.00;;;17.32;100.00
53546;BME280;39432;51.902;10.844;2023-09-18T03:37:52;98922.31;;;17.08;100.00
53546;BME280;39432;51.902;10.844;2023-09-18T03:40:46;98919.34;;;17.76;100.00
53546;BME280;39432;51.902;10.844;2023-09-18T03:43:37;98907.13;;;17.85;100.00
53546;BME280;39432;51.902;10.844;2023-09-18T03:46:27;98892.63;;;17.80;100.00
53546;BME280;39432;51.902;10.844;2023-09-18T03:49:18;98889.63;;;17.50;100.00
53546;BME280;39432;51.902;10.844;2023-09-18T03:52:10;98890.56;;;17.94;100.00
53546;BME280;39432;51.902;10.844;2023-09-18T03:55:01;98887.22;;;17.66;100.00
53546;BME280;39432;51.902;10.844;2023-09-18T03:57:54;98876.16;;;17.66;100.00
53546;BME280;39432;51.902;10.844;2023-09-18T04:00:44;98868.78;;;17.44;100.00
53546;BME280;39432;51.902;10.844;2023-09-18T04:03:36;98872.84;;;16.98;100.00
53546;BME280;39432;51.902;10.844;2023-09-18T04:06:36;98889.50;;;17.16;100.00
53546;BME280;39432;51.902;10.844;2023-09-18T04:09:27;98893.09;;;17.25;100.00
53546;BME280;39432;51.902;10.844;2023-09-18T04:12:18;98880.63;;;16.96;100.00
53546;BME280;39432;51.902;10.844;2023-09-18T04:15:13;98890.59;;;16.75;100.00
53546;BME280;39432;51.902;10.844;2023-09-18T04:18:06;98882.22;;;16.66;100.00
53546;BME280;39432;51.902;10.844;2023-09-18T04:20:56;98886.19;;;16.51;100.00
53546;BME280;39432;51.902;10.844;2023-09-18T04:23:47;98886.00;;;16.48;100.00
53546;BME280;39432;51.902;10.844;2023-09-18T04:26:43;98880.06;;;16.54;100.00
53546;BME280;39432;51.902;10.844;2023-09-18T04:29:34;98880.91;;;16.86;100.00
53546;BME280;39432;51.902;10.844;2023-09-18T04:32:27;98866.59;;;17.15;100.00
53546;BME280;39432;51.902;10.844;2023-09-18T04:35:18;98853.19;;;17.57;100.00
53546;BME280;39432;51.902;10.844;2023-09-18T04:38:14;98825.63;;;17.26;100.00
53546;BME280;39432;51.902;10.844;2023-09-18T04:41:07;98839.56;;;17.12;100.00
53546;BME280;39432;51.902;10.844;2023-09-18T04:43:58;98835.00;;;17.64;100.00
53546;BME280;39432;51.902;10.844;2023-09-18T04:46:50;98819.16;;;17.39;100.00
53546;BME280;39432;51.902;10.844;2023-09-18T04:49:45;98826.41;;;17.18;100.00
53546;BME280;39432;51.902;10.844;2023-09-18T04:52:37;98828.38;;;16.77;100.00
53546;BME280;39432;51.902;10.844;2023-09-18T04:55:28;98844.22;;;16.94;100.00
53546;BME280;39432;51.902;10.844;2023-09-18T04:58:19;98834.13;;;17.47;100.00
53546;BME280;39432;51.902;10.844;2023-09-18T05:01:09;98816.81;;;17.81;100.00
53546;BME280;39432;51.902;10.844;2023-09-18T05:04:00;98794.63;;;18.15;100.00
53546;BME280;39432;51.902;10.844;2023-09-18T05:06:53;98772.78;;;17.36;100.00
53546;BME280;39432;51.902;10.844;2023-09-18T05:09:43;98772.03;;;16.87;100.00
53546;BME280;39432;51.902;10.844;2023-09-18T05:12:34;98792.84;;;16.93;100.00
53546;BME280;39432;51.902;10.844;2023-09-18T05:15:24;98788.00;;;17.07;100.00
53546;BME280;39432;51.902;10.844;2023-09-18T05:18:17;98778.84;;;16.90;100.00
53546;BME280;39432;51.902;10.844;2023-09-18T05:21:08;98786.09;;;17.17;100.00
53546;BME280;39432;51.902;10.844;2023-09-18T05:24:02;98777.97;;;17.20;100.00
53546;BME280;39432;51.902;10.844;2023-09-18T05:26:53;98779.59;;;17.30;100.00
53546;BME280;39432;51.902;10.844;2023-09-18T05:29:43;98768.59;;;17.47;100.00
53546;BME280;39432;51.902;10.844;2023-09-18T05:32:33;98764.97;;;17.21;100.00
53546;BME280;39432;51.902;10.844;2023-09-18T05:35:24;98763.81;;;17.30;100.00
53546;BME280;39432;51.902;10.844;2023-09-18T05:38:14;98762.97;;;17.04;100.00
53546;BME280;39432;51.902;10.844;2023-09-18T05:41:08;98766.75;;;17.34;100.00
53546;BME280;39432;51.902;10.844;2023-09-18T05:43:58;98767.22;;;17.19;100.00
53546;BME280;39432;51.902;10.844;2023-09-18T05:46:51;98777.16;;;17.28;100.00
53546;BME280;39432;51.902;10.844;2023-09-18T05:49:41;98785.22;;;17.99;100.00
53546;BME280;39432;51.902;10.844;2023-09-18T05:52:32;98778.81;;;18.25;100.00
53546;BME280;39432;51.902;10.844;2023-09-18T05:55:23;98749.69;;;18.19;100.00
53546;BME280;39432;51.902;10.844;2023-09-18T05:58:16;98741.25;;;17.89;100.00
53546;BME280;39432;51.902;10.844;2023-09-18T06:01:09;98761.50;;;18.45;100.00
53546;BME280;39432;51.902;10.844;2023-09-18T06:03:59;98754.06;;;18.66;100.00
53546;BME280;39432;51.902;10.844;2023-09-18T06:06:51;98740.66;;;18.39;100.00
53546;BME280;39432;51.902;10.844;2023-09-18T06:09:41;98747.47;;;18.97;100.00
53546;BME280;39432;51.902;10.844;2023-09-18T06:12:31;98716.00;;;19.64;100.00
53546;BME280;39432;51.902;10.844;2023-09-18T06:15:24;98712.88;;;19.45;100.00
53546;BME280;39432;51.902;10.844;2023-09-18T06:18:14;98709.31;;;18.94;100.00
53546;BME280;39432;51.902;10.844;2023-09-18T06:21:05;98697.44;;;19.56;100.00
53546;BME280;39432;51.902;10.844;2023-09-18T06:23:55;98682.44;;;19.36;100.00
53546;BME280;39432;51.902;10.844;2023-09-18T06:26:45;98681.09;;;19.63;100.00
53546;BME280;39432;51.902;10.844;2023-09-18T06:29:36;98677.53;;;19.75;100.00
53546;BME280;39432;51.902;10.844;2023-09-18T06:32:29;98685.09;;;20.32;100.00
53546;BME280;39432;51.902;10.844;2023-09-18T06:35:20;98673.59;;;19.55;100.00
53546;BME280;39432;51.902;10.844;2023-09-18T06:38:11;98695.81;;;19.55;100.00
53546;BME280;39432;51.902;10.844;2023-09-18T06:41:03;98678.56;;;20.73;100.00
53546;BME280;39432;51.902;10.844;2023-09-18T06:43:53;98645.66;;;20.88;100.00
53546;BME280;39432;51.902;10.844;2023-09-18T06:46:44;98616.66;;;21.29;100.00
53546;BME280;39432;51.902;10.844;2023-09-18T06:49:37;98606.56;;;21.37;100.00
53546;BME280;39432;51.902;10.844;2023-09-18T06:52:29;98589.44;;;21.78;100.00
53546;BME280;39432;51.902;10.844;2023-09-18T06:55:19;98587.00;;;21.61;100.00
53546;BME280;39432;51.902;10.844;2023-09-18T06:58:09;98583.97;;;21.38;100.00
53546;BME280;39432;51.902;10.844;2023-09-18T07:01:00;98585.75;;;21.74;100.00
53546;BME280;39432;51.902;10.844;2023-09-18T07:03:50;98562.50;;;21.82;100.00
53546;BME280;39432;51.902;10.844;2023-09-18T07:06:43;98558.38;;;21.92;100.00
53546;BME280;39432;51.902;10.844;2023-09-18T07:09:34;98562.16;;;22.00;100.00
53546;BME280;39432;51.902;10.844;2023-09-18T07:12:41;98579.59;;;22.28;100.00
53546;BME280;39432;51.902;10.844;2023-09-18T07:15:32;98573.13;;;22.24;100.00
53546;BME280;39432;51.902;10.844;2023-09-18T07:18:22;98585.34;;;22.04;100.00
53546;BME280;39432;51.902;10.844;2023-09-18T07:21:12;98578.22;;;22.06;100.00
53546;BME280;39432;51.902;10.844;2023-09-18T07:24:06;98576.19;;;22.19;100.00
53546;BME280;39432;51.902;10.844;2023-09-18T07:26:57;98565.88;;;22.20;100.00
53546;BME280;39432;51.902;10.844;2023-09-18T07:29:48;98583.59;;;22.62;100.00
53546;BME280;39432;51.902;10.844;2023-09-18T07:32:40;98559.69;;;22.46;100.00
53546;BME280;39432;51.902;10.844;2023-09-18T07:35:30;98555.16;;;22.73;100.00
53546;BME280;39432;51.902;10.844;2023-09-18T07:38:21;98564.16;;;22.66;100.00
53546;BME280;39432;51.902;10.844;2023-09-18T07:41:15;98562.19;;;22.67;100.00
53546;BME280;39432;51.902;10.844;2023-09-18T07:44:06;98574.16;;;23.02;100.00
53546;BME280;39432;51.902;10.844;2023-09-18T07:46:56;98574.66;;;23.27;100.00
53546;BME280;39432;51.902;10.844;2023-09-18T07:49:49;98569.38;;;23.42;100.00
53546;BME280;39432;51.902;10.844;2023-09-18T07:52:42;98572.81;;;23.54;100.00
53546;BME280;39432;51.902;10.844;2023-09-18T07:55:32;98574.50;;;23.59;100.00
53546;BME280;39432;51.902;10.844;2023-09-18T07:58:25;98580.81;;;23.56;100.00
53546;BME280;39432;51.902;10.844;2023-09-18T08:01:16;98598.84;;;23.58;100.00
53546;BME280;39432;51.902;10.844;2023-09-18T08:04:09;98605.50;;;23.73;100.00
53546;BME280;39432;51.902;10.844;2023-09-18T08:07:00;98599.38;;;23.64;100.00
53546;BME280;39432;51.902;10.844;2023-09-18T08:09:53;98604.09;;;23.83;100.00
53546;BME280;39432;51.902;10.844;2023-09-18T08:12:43;98614.78;;;23.38;100.00
53546;BME280;39432;51.902;10.844;2023-09-18T08:15:36;98605.84;;;23.68;100.00
53546;BME280;39432;51.902;10.844;2023-09-18T08:18:27;98615.44;;;24.13;100.00
53546;BME280;39432;51.902;10.844;2023-09-18T08:21:19;98623.06;;;24.35;100.00
53546;BME280;39432;51.902;10.844;2023-09-18T08:24:11;98625.88;;;24.62;100.00
53546;BME280;39432;51.902;10.844;2023-09-18T08:27:01;98638.22;;;23.53;100.00
53546;BME280;39432;51.902;10.844;2023-09-18T08:29:51;98640.28;;;23.37;100.00
53546;BME280;39432;51.902;10.844;2023-09-18T08:32:44;98633.94;;;24.21;100.00
53546;BME280;39432;51.902;10.844;2023-09-18T08:35:35;98627.72;;;23.47;100.00
53546;BME280;39432;51.902;10.844;2023-09-18T08:38:27;98630.91;;;24.07;100.00
53546;BME280;39432;51.902;10.844;2023-09-18T08:41:18;98630.78;;;23.61;100.00
53546;BME280;39432;51.902;10.844;2023-09-18T08:44:09;98636.53;;;23.87;100.00
53546;BME280;39432;51.902;10.844;2023-09-18T08:46:59;98633.66;;;23.26;100.00
53546;BME280;39432;51.902;10.844;2023-09-18T08:49:54;98635.44;;;23.92;100.00
53546;BME280;39432;51.902;10.844;2023-09-18T08:52:45;98622.41;;;23.61;100.00
53546;BME280;39432;51.902;10.844;2023-09-18T08:55:37;98628.03;;;23.42;100.00
53546;BME280;39432;51.902;10.844;2023-09-18T08:58:28;98620.50;;;23.84;100.00
53546;BME280;39432;51.902;10.844;2023-09-18T09:01:23;98601.31;;;23.83;100.00
53546;BME280;39432;51.902;10.844;2023-09-18T09:04:13;98602.34;;;23.55;100.00
53546;BME280;39432;51.902;10.844;2023-09-18T09:07:06;98582.66;;;23.29;100.00
53546;BME280;39432;51.902;10.844;2023-09-18T09:09:57;98584.78;;;23.55;100.00
53546;BME280;39432;51.902;10.844;2023-09-18T09:12:54;98583.63;;;23.17;100.00
53546;BME280;39432;51.902;10.844;2023-09-18T09:15:46;98576.28;;;23.48;100.00
53546;BME280;39432;51.902;10.844;2023-09-18T09:18:47;98567.06;;;24.09;100.00
53546;BME280;39432;51.902;10.844;2023-09-18T09:21:39;98557.66;;;24.43;100.00
53546;BME280;39432;51.902;10.844;2023-09-18T09:24:41;98554.75;;;24.89;100.00
53546;BME280;39432;51.902;10.844;2023-09-18T09:27:42;98563.25;;;24.43;100.00
53546;BME280;39432;51.902;10.844;2023-09-18T09:30:33;98542.13;;;24.76;100.00
53546;BME280;39432;51.902;10.844;2023-09-18T09:33:24;98538.16;;;24.77;100.00
53546;BME280;39432;51.902;10.844;2023-09-18T09:36:14;98548.56;;;24.27;100.00
53546;BME280;39432;51.902;10.844;2023-09-18T09:39:04;98556.47;;;24.71;100.00
53546;BME280;39432;51.902;10.844;2023-09-18T09:41:59;98565.47;;;24.57;100.00
53546;BME280;39432;51.902;10.844;2023-09-18T09:45:02;98564.06;;;24.70;100.00
53546;BME280;39432;51.902;10.844;2023-09-18T09:47:53;98556.50;;;25.05;100.00
53546;BME280;39432;51.902;10.844;2023-09-18T09:50:46;98547.31;;;24.74;100.00
53546;BME280;39432;51.902;10.844;2023-09-18T09:53:44;98532.59;;;25.41;100.00
53546;BME280;39432;51.902;10.844;2023-09-18T09:56:40;98535.31;;;25.04;100.00
53546;BME280;39432;51.902;10.844;2023-09-18T09:59:34;98543.81;;;24.81;100.00
53546;BME280;39432;51.902;10.844;2023-09-18T10:02:26;98547.13;;;25.20;100.00
53546;BME280;39432;51.902;10.844;2023-09-18T10:05:18;98552.38;;;24.65;100.00
53546;BME280;39432;51.902;10.844;2023-09-18T10:08:12;98542.31;;;25.51;100.00
53546;BME280;39432;51.902;10.844;2023-09-18T10:11:06;98539.63;;;24.97;100.00
53546;BME280;39432;51.902;10.844;2023-09-18T10:14:00;98534.38;;;24.92;100.00
53546;BME280;39432;51.902;10.844;2023-09-18T10:16:59;98536.00;;;25.61;100.00
53546;BME280;39432;51.902;10.844;2023-09-18T10:19:58;98524.31;;;25.92;100.00
53546;BME280;39432;51.902;10.844;2023-09-18T10:22:57;98533.50;;;26.37;100.00
53546;BME280;39432;51.902;10.844;2023-09-18T10:25:51;98539.41;;;25.77;100.00
53546;BME280;39432;51.902;10.844;2023-09-18T10:28:44;98540.22;;;25.10;100.00
53546;BME280;39432;51.902;10.844;2023-09-18T10:31:36;98546.94;;;24.76;100.00
53546;BME280;39432;51.902;10.844;2023-09-18T10:34:32;98551.31;;;24.47;100.00
53546;BME280;39432;51.902;10.844;2023-09-18T10:37:23;98557.53;;;24.36;100.00
53546;BME280;39432;51.902;10.844;2023-09-18T10:40:15;98564.63;;;24.30;100.00
53546;BME280;39432;51.902;10.844;2023-09-18T10:43:06;98559.97;;;24.15;100.00
53546;BME280;39432;51.902;10.844;2023-09-18T10:45:58;98557.69;;;23.98;100.00
53546;BME280;39432;51.902;10.844;2023-09-18T10:48:49;98560.06;;;23.96;100.00
53546;BME280;39432;51.902;10.844;2023-09-18T10:51:43;98542.38;;;24.37;100.00
53546;BME280;39432;51.902;10.844;2023-09-18T10:54:34;98544.69;;;24.58;100.00
53546;BME280;39432;51.902;10.844;2023-09-18T10:57:25;98545.63;;;24.39;100.00
53546;BME280;39432;51.902;10.844;2023-09-18T11:00:16;98544.28;;;24.56;100.00
53546;BME280;39432;51.902;10.844;2023-09-18T11:03:12;98553.31;;;24.73;100.00
53546;BME280;39432;51.902;10.844;2023-09-18T11:06:07;98556.91;;;24.73;100.00
53546;BME280;39432;51.902;10.844;2023-09-18T11:09:05;98559.38;;;24.52;100.00
53546;BME280;39432;51.902;10.844;2023-09-18T11:12:02;98559.41;;;25.08;100.00
53546;BME280;39432;51.902;10.844;2023-09-18T11:14:56;98566.03;;;24.70;100.00
53546;BME280;39432;51.902;10.844;2023-09-18T11:17:58;98567.78;;;24.78;100.00
53546;BME280;39432;51.902;10.844;2023-09-18T11:21:06;98568.47;;;24.71;100.00
53546;BME280;39432;51.902;10.844;2023-09-18T11:23:58;98574.47;;;25.00;100.00
53546;BME280;39432;51.902;10.844;2023-09-18T11:26:53;98565.13;;;24.89;100.00
53546;BME280;39432;51.902;10.844;2023-09-18T11:29:44;98557.09;;;24.87;100.00
53546;BME280;39432;51.902;10.844;2023-09-18T11:32:38;98564.88;;;25.01;100.00
53546;BME280;39432;51.902;10.844;2023-09-18T11:35:28;98567.28;;;25.03;100.00
53546;BME280;39432;51.902;10.844;2023-09-18T11:38:19;98571.06;;;24.84;100.00
53546;BME280;39432;51.902;10.844;2023-09-18T11:41:21;98577.44;;;24.84;100.00
53546;BME280;39432;51.902;10.844;2023-09-18T11:44:36;98571.94;;;24.91;100.00
53546;BME280;39432;51.902;10.844;2023-09-18T11:47:29;98572.25;;;25.13;100.00
53546;BME280;39432;51.902;10.844;2023-09-18T11:50:20;98579.47;;;25.14;100.00
53546;BME280;39432;51.902;10.844;2023-09-18T11:53:11;98565.47;;;25.47;100.00
53546;BME280;39432;51.902;10.844;2023-09-18T11:56:02;98557.59;;;25.23;100.00
53546;BME280;39432;51.902;10.844;2023-09-18T11:58:53;98556.47;;;24.71;100.00
53546;BME280;39432;51.902;10.844;2023-09-18T12:01:52;98570.94;;;24.77;100.00
53546;BME280;39432;51.902;10.844;2023-09-18T12:04:48;98556.72;;;24.89;100.00
53546;BME280;39432;51.902;10.844;2023-09-18T12:07:39;98562.50;;;24.73;100.00
53546;BME280;39432;51.902;10.844;2023-09-18T12:10:32;98573.41;;;24.32;100.00
53546;BME280;39432;51.902;10.844;2023-09-18T12:13:25;98564.38;;;24.16;100.00
53546;BME280;39432;51.902;10.844;2023-09-18T12:16:15;98571.56;;;24.17;100.00
53546;BME280;39432;51.902;10.844;2023-09-18T12:19:16;98582.53;;;24.03;100.00
53546;BME280;39432;51.902;10.844;2023-09-18T12:22:06;98581.75;;;24.06;100.00
53546;BME280;39432;51.902;10.844;2023-09-18T12:25:08;98585.94;;;24.38;100.00
53546;BME280;39432;51.902;10.844;2023-09-18T12:28:06;98579.97;;;23.94;100.00
53546;BME280;39432;51.902;10.844;2023-09-18T12:30:56;98564.81;;;23.95;100.00
53546;BME280;39432;51.902;10.844;2023-09-18T12:33:53;98557.00;;;23.62;100.00
53546;BME280;39432;51.902;10.844;2023-09-18T12:36:47;98557.75;;;23.59;100.00
53546;BME280;39432;51.902;10.844;2023-09-18T12:39:37;98555.25;;;23.54;100.00
53546;BME280;39432;51.902;10.844;2023-09-18T12:42:28;98569.94;;;23.51;100.00
53546;BME280;39432;51.902;10.844;2023-09-18T12:45:18;98585.31;;;23.60;100.00
53546;BME280;39432;51.902;10.844;2023-09-18T12:48:09;98597.56;;;23.56;100.00
53546;BME280;39432;51.902;10.844;2023-09-18T12:51:03;98600.09;;;23.80;100.00
53546;BME280;39432;51.902;10.844;2023-09-18T12:54:01;98619.34;;;23.66;100.00
53546;BME280;39432;51.902;10.844;2023-09-18T12:56:54;98620.06;;;23.82;100.00
53546;BME280;39432;51.902;10.844;2023-09-18T12:59:44;98626.41;;;23.79;100.00
53546;BME280;39432;51.902;10.844;2023-09-18T13:02:38;98613.78;;;23.66;100.00
53546;BME280;39432;51.902;10.844;2023-09-18T13:05:29;98614.56;;;23.47;100.00
53546;BME280;39432;51.902;10.844;2023-09-18T13:08:21;98608.03;;;23.39;100.00
53546;BME280;39432;51.902;10.844;2023-09-18T13:11:14;98611.91;;;23.54;100.00
53546;BME280;39432;51.902;10.844;2023-09-18T13:14:05;98613.59;;;23.39;100.00
53546;BME280;39432;51.902;10.844;2023-09-18T13:17:00;98625.38;;;23.49;100.00
53546;BME280;39432;51.902;10.844;2023-09-18T13:19:51;98623.31;;;23.26;100.00
53546;BME280;39432;51.902;10.844;2023-09-18T13:22:42;98617.88;;;23.33;100.00
53546;BME280;39432;51.902;10.844;2023-09-18T13:25:38;98609.06;;;23.31;100.00
53546;BME280;39432;51.902;10.844;2023-09-18T13:28:34;98621.69;;;23.25;100.00
53546;BME280;39432;51.902;10.844;2023-09-18T13:31:27;98621.25;;;23.23;100.00
53546;BME280;39432;51.902;10.844;2023-09-18T13:34:18;98620.66;;;23.14;100.00
53546;BME280;39432;51.902;10.844;2023-09-18T13:37:09;98611.19;;;23.19;100.00
53546;BME280;39432;51.902;10.844;2023-09-18T13:40:01;98624.03;;;23.23;100.00
53546;BME280;39432;51.902;10.844;2023-09-18T13:42:56;98625.06;;;23.34;100.00
53546;BME280;39432;51.902;10.844;2023-09-18T13:45:49;98621.41;;;23.30;100.00
53546;BME280;39432;51.902;10.844;2023-09-18T13:48:42;98619.66;;;23.42;100.00
53546;BME280;39432;51.902;10.844;2023-09-18T13:51:33;98605.59;;;23.38;100.00
53546;BME280;39432;51.902;10.844;2023-09-18T13:54:23;98606.84;;;23.79;100.00
53546;BME280;39432;51.902;10.844;2023-09-18T13:57:14;98617.59;;;23.58;100.00
53546;BME280;39432;51.902;10.844;2023-09-18T14:00:05;98625.97;;;23.58;100.00
53546;BME280;39432;51.902;10.844;2023-09-18T14:03:04;98613.53;;;23.55;100.00
53546;BME280;39432;51.902;10.844;2023-09-18T14:05:54;98622.41;;;23.61;100.00
53546;BME280;39432;51.902;10.844;2023-09-18T14:08:45;98626.81;;;23.62;100.00
53546;BME280;39432;51.902;10.844;2023-09-18T14:11:35;98612.59;;;23.48;100.00
53546;BME280;39432;51.902;10.844;2023-09-18T14:14:25;98611.41;;;23.49;100.00
53546;BME280;39432;51.902;10.844;2023-09-18T14:17:16;98612.72;;;23.55;100.00
53546;BME280;39432;51.902;10.844;2023-09-18T14:20:11;98612.00;;;23.58;100.00
53546;BME280;39432;51.902;10.844;2023-09-18T14:23:05;98600.38;;;23.75;100.00
53546;BME280;39432;51.902;10.844;2023-09-18T14:25:55;98599.38;;;23.64;100.00
53546;BME280;39432;51.902;10.844;2023-09-18T14:28:46;98597.53;;;23.52;100.00
53546;BME280;39432;51.902;10.844;2023-09-18T14:31:37;98600.31;;;23.33;100.00
53546;BME280;39432;51.902;10.844;2023-09-18T14:34:27;98592.97;;;23.63;100.00
53546;BME280;39432;51.902;10.844;2023-09-18T14:37:20;98606.25;;;23.51;100.00
53546;BME280;39432;51.902;10.844;2023-09-18T14:40:11;98601.28;;;23.79;100.00
53546;BME280;39432;51.902;10.844;2023-09-18T14:43:02;98611.09;;;23.73;100.00
53546;BME280;39432;51.902;10.844;2023-09-18T14:45:53;98609.94;;;23.74;100.00
53546;BME280;39432;51.902;10.844;2023-09-18T14:48:43;98608.31;;;23.54;100.00